sensor_id;sensor_type;location;lat;lon;timestamp;pressure;altitude;pressure_sealevel;temperature;humidity
78198;BME280;67472;51.554;7.812;2023-02-11T00:00:09;102526.34;;;6.23;100.00
78198;BME280;67472;51.554;7.812;2023-02-11T00:02:54;102516.81;;;6.21;100.00
78198;BME280;67472;51.554;7.812;2023-02-11T00:05:39;102520.44;;;6.17;100.00
78198;BME280;67472;51.554;7.812;2023-02-11T00:08:23;102497.72;;;6.16;100.00
78198;BME280;67472;51.554;7.812;2023-02-11T00:11:12;102501.88;;;6.23;100.00
78198;BME280;67472;51.554;7.812;2023-02-11T00:14:00;102499.38;;;6.18;100.00
78198;BME280;67472;51.554;7.812;2023-02-11T00:16:45;102486.50;;;6.12;100.00
78198;BME280;67472;51.554;7.812;2023-02-11T00:19:29;102483.81;;;6.14;100.00
78198;BME280;67472;51.554;7.812;2023-02-11T00:22:15;102488.59;;;6.03;100.00
78198;BME280;67472;51.554;7.812;2023-02-11T00:24:59;102500.69;;;6.07;100.00
78198;BME280;67472;51.554;7.812;2023-02-11T00:27:44;102495.44;;;6.07;100.00
78198;BME280;67472;51.554;7.812;2023-02-11T00:30:30;102486.66;;;6.08;100.00
78198;BME280;67472;51.554;7.812;2023-02-11T00:33:15;102489.59;;;5.99;100.00
78198;BME280;67472;51.554;7.812;2023-02-11T00:36:08;102493.16;;;5.98;100.00
78198;BME280;67472;51.554;7.812;2023-02-11T00:38:54;102495.97;;;5.92;100.00
78198;BME280;67472;51.554;7.812;2023-02-11T00:41:38;102505.53;;;5.93;100.00
78198;BME280;67472;51.554;7.812;2023-02-11T00:44:23;102500.16;;;5.97;100.00
78198;BME280;67472;51.554;7.812;2023-02-11T00:47:07;102500.41;;;5.90;100.00
78198;BME280;67472;51.554;7.812;2023-02-11T00:49:53;102489.88;;;5.91;100.00
78198;BME280;67472;51.554;7.812;2023-02-11T00:52:38;102485.59;;;5.89;100.00
78198;BME280;67472;51.554;7.812;2023-02-11T00:55:22;102481.09;;;5.92;100.00
78198;BME280;67472;51.554;7.812;2023-02-11T00:58:07;102477.78;;;5.87;100.00
78198;BME280;67472;51.554;7.812;2023-02-11T01:00:53;102483.81;;;5.89;100.00
78198;BME280;67472;51.554;7.812;2023-02-11T01:03:37;102484.63;;;5.91;100.00
78198;BME280;67472;51.554;7.812;2023-02-11T01:06:22;102479.38;;;5.91;100.00
78198;BME280;67472;51.554;7.812;2023-02-11T01:09:07;102470.75;;;5.88;100.00
78198;BME280;67472;51.554;7.812;2023-02-11T01:11:52;102479.31;;;5.93;100.00
78198;BME280;67472;51.554;7.812;2023-02-11T01:14:37;102483.78;;;5.91;100.00
78198;BME280;67472;51.554;7.812;2023-02-11T01:17:21;102491.44;;;5.97;100.00
78198;BME280;67472;51.554;7.812;2023-02-11T01:20:13;102486.00;;;6.01;100.00
78198;BME280;67472;51.554;7.812;2023-02-11T01:22:59;102493.63;;;6.09;100.00
78198;BME280;67472;51.554;7.812;2023-02-11T01:25:43;102494.63;;;6.05;100.00
78198;BME280;67472;51.554;7.812;2023-02-11T01:28:28;102486.94;;;6.00;100.00
78198;BME280;67472;51.554;7.812;2023-02-11T01:31:13;102495.59;;;6.02;100.00
78198;BME280;67472;51.554;7.812;2023-02-11T01:33:58;102506.28;;;5.98;100.00
78198;BME280;67472;51.554;7.812;2023-02-11T01:36:42;102506.66;;;6.12;100.00
78198;BME280;67472;51.554;7.812;2023-02-11T01:39:27;102507.84;;;6.02;100.00
78198;BME280;67472;51.554;7.812;2023-02-11T01:42:17;102504.38;;;6.01;100.00
78198;BME280;67472;51.554;7.812;2023-02-11T01:45:41;102501.72;;;6.03;100.00
78198;BME280;67472;51.554;7.812;2023-02-11T01:48:37;102517.56;;;6.00;100.00
78198;BME280;67472;51.554;7.812;2023-02-11T01:51:32;102524.28;;;6.07;100.00
78198;BME280;67472;51.554;7.812;2023-02-11T01:54:22;102505.44;;;5.96;100.00
78198;BME280;67472;51.554;7.812;2023-02-11T01:57:29;102505.53;;;5.93;100.00
78198;BME280;67472;51.554;7.812;2023-02-11T02:03:16;102478.47;;;5.92;100.00
78198;BME280;67472;51.554;7.812;2023-02-11T02:06:11;102467.28;;;5.87;100.00
78198;BME280;67472;51.554;7.812;2023-02-11T02:09:08;102455.09;;;5.86;100.00
78198;BME280;67472;51.554;7.812;2023-02-11T02:11:54;102453.47;;;5.81;100.00
78198;BME280;67472;51.554;7.812;2023-02-11T02:14:41;102450.16;;;5.76;100.00
78198;BME280;67472;51.554;7.812;2023-02-11T02:17:37;102444.13;;;5.74;100.00
78198;BME280;67472;51.554;7.812;2023-02-11T02:30:34;102464.50;;;5.92;100.00
78198;BME280;67472;51.554;7.812;2023-02-11T02:33:29;102453.47;;;5.81;100.00
78198;BME280;67472;51.554;7.812;2023-02-11T02:39:20;102455.94;;;5.87;100.00
78198;BME280;67472;51.554;7.812;2023-02-11T02:42:07;102451.72;;;5.81;100.00
78198;BME280;67472;51.554;7.812;2023-02-11T02:44:52;102443.75;;;5.84;100.00
78198;BME280;67472;51.554;7.812;2023-02-11T02:47:39;102450.88;;;5.81;100.00
78198;BME280;67472;51.554;7.812;2023-02-11T02:50:28;102442.16;;;5.80;100.00
78198;BME280;67472;51.554;7.812;2023-02-11T02:53:24;102446.19;;;5.90;100.00
78198;BME280;67472;51.554;7.812;2023-02-11T02:56:29;102456.66;;;5.92;100.00
78198;BME280;67472;51.554;7.812;2023-02-11T02:59:32;102449.69;;;5.91;100.00
78198;BME280;67472;51.554;7.812;2023-02-11T03:08:50;102454.13;;;5.89;100.00
78198;BME280;67472;51.554;7.812;2023-02-11T03:11:37;102462.91;;;5.88;100.00
78198;BME280;67472;51.554;7.812;2023-02-11T03:14:24;102472.53;;;5.87;100.00
78198;BME280;67472;51.554;7.812;2023-02-11T03:17:09;102469.88;;;5.89;100.00
78198;BME280;67472;51.554;7.812;2023-02-11T03:19:55;102463.66;;;5.91;100.00
78198;BME280;67472;51.554;7.812;2023-02-11T03:22:47;102467.25;;;5.89;100.00
78198;BME280;67472;51.554;7.812;2023-02-11T03:25:41;102461.19;;;5.87;100.00
78198;BME280;67472;51.554;7.812;2023-02-11T03:28:31;102466.28;;;5.91;100.00
78198;BME280;67472;51.554;7.812;2023-02-11T03:37:17;102461.53;;;5.76;100.00
78198;BME280;67472;51.554;7.812;2023-02-11T03:40:12;102460.22;;;5.89;100.00
78198;BME280;67472;51.554;7.812;2023-02-11T03:43:05;102447.34;;;5.82;100.00
78198;BME280;67472;51.554;7.812;2023-02-11T03:45:52;102445.59;;;5.82;100.00
78198;BME280;67472;51.554;7.812;2023-02-11T03:48:40;102441.22;;;5.81;100.00
78198;BME280;67472;51.554;7.812;2023-02-11T03:51:28;102438.63;;;5.81;100.00
78198;BME280;67472;51.554;7.812;2023-02-11T03:54:18;102438.44;;;5.87;100.00
78198;BME280;67472;51.554;7.812;2023-02-11T03:57:04;102438.41;;;5.89;100.00
78198;BME280;67472;51.554;7.812;2023-02-11T03:59:56;102443.56;;;5.90;100.00
78198;BME280;67472;51.554;7.812;2023-02-11T04:02:42;102448.13;;;5.85;100.00
78198;BME280;67472;51.554;7.812;2023-02-11T04:05:27;102453.38;;;5.85;100.00
78198;BME280;67472;51.554;7.812;2023-02-11T04:08:11;102449.06;;;5.83;100.00
78198;BME280;67472;51.554;7.812;2023-02-11T04:10:56;102431.78;;;5.77;100.00
78198;BME280;67472;51.554;7.812;2023-02-11T04:13:40;102428.31;;;5.77;100.00
78198;BME280;67472;51.554;7.812;2023-02-11T04:16:25;102420.56;;;5.72;100.00
78198;BME280;67472;51.554;7.812;2023-02-11T04:19:09;102429.09;;;5.79;100.00
78198;BME280;67472;51.554;7.812;2023-02-11T04:21:54;102435.13;;;5.81;100.00
78198;BME280;67472;51.554;7.812;2023-02-11T04:24:38;102436.31;;;5.72;100.00
78198;BME280;67472;51.554;7.812;2023-02-11T04:27:23;102457.13;;;5.77;100.00
78198;BME280;67472;51.554;7.812;2023-02-11T04:30:08;102462.59;;;5.70;100.00
78198;BME280;67472;51.554;7.812;2023-02-11T04:32:52;102464.94;;;5.78;100.00
78198;BME280;67472;51.554;7.812;2023-02-11T04:35:37;102463.56;;;5.68;100.00
78198;BME280;67472;51.554;7.812;2023-02-11T04:38:22;102469.69;;;5.67;100.00
78198;BME280;67472;51.554;7.812;2023-02-11T04:41:06;102471.44;;;5.66;100.00
78198;BME280;67472;51.554;7.812;2023-02-11T04:43:51;102478.47;;;5.66;100.00
78198;BME280;67472;51.554;7.812;2023-02-11T04:46:35;102478.47;;;5.66;100.00
78198;BME280;67472;51.554;7.812;2023-02-11T04:49:20;102479.19;;;5.71;100.00
78198;BME280;67472;51.554;7.812;2023-02-11T04:52:04;102473.28;;;5.64;100.00
78198;BME280;67472;51.554;7.812;2023-02-11T04:54:48;102475.91;;;5.64;100.00
78198;BME280;67472;51.554;7.812;2023-02-11T04:57:33;102473.38;;;5.61;100.00
78198;BME280;67472;51.554;7.812;2023-02-11T05:00:18;102475.09;;;5.62;100.00
78198;BME280;67472;51.554;7.812;2023-02-11T05:03:02;102483.19;;;5.55;100.00
78198;BME280;67472;51.554;7.812;2023-02-11T05:05:46;102482.50;;;5.50;100.00
78198;BME280;67472;51.554;7.812;2023-02-11T05:08:31;102493.88;;;5.49;100.00
78198;BME280;67472;51.554;7.812;2023-02-11T05:11:21;102487.94;;;5.44;100.00
78198;BME280;67472;51.554;7.812;2023-02-11T05:14:06;102501.00;;;5.45;100.00
78198;BME280;67472;51.554;7.812;2023-02-11T05:16:50;102503.81;;;5.39;100.00
78198;BME280;67472;51.554;7.812;2023-02-11T05:19:35;102508.50;;;5.30;100.00
78198;BME280;67472;51.554;7.812;2023-02-11T05:22:19;102509.06;;;5.39;100.00
78198;BME280;67472;51.554;7.812;2023-02-11T05:25:05;102504.81;;;5.35;100.00
78198;BME280;67472;51.554;7.812;2023-02-11T05:27:49;102510.94;;;5.34;100.00
78198;BME280;67472;51.554;7.812;2023-02-11T05:30:33;102517.81;;;5.38;100.00
78198;BME280;67472;51.554;7.812;2023-02-11T05:33:18;102521.53;;;5.31;100.00
78198;BME280;67472;51.554;7.812;2023-02-11T05:36:06;102514.69;;;5.27;100.00
78198;BME280;67472;51.554;7.812;2023-02-11T05:38:51;102516.06;;;5.39;100.00
78198;BME280;67472;51.554;7.812;2023-02-11T05:41:36;102522.38;;;5.32;100.00
78198;BME280;67472;51.554;7.812;2023-02-11T05:44:20;102519.13;;;5.25;100.00
78198;BME280;67472;51.554;7.812;2023-02-11T05:47:06;102516.59;;;5.22;100.00
78198;BME280;67472;51.554;7.812;2023-02-11T05:49:52;102532.25;;;5.24;100.00
78198;BME280;67472;51.554;7.812;2023-02-11T05:52:38;102531.41;;;5.23;100.00
78198;BME280;67472;51.554;7.812;2023-02-11T05:55:23;102537.47;;;5.25;100.00
78198;BME280;67472;51.554;7.812;2023-02-11T05:58:08;102529.63;;;5.24;100.00
78198;BME280;67472;51.554;7.812;2023-02-11T06:00:53;102525.16;;;5.27;100.00
78198;BME280;67472;51.554;7.812;2023-02-11T06:03:37;102530.31;;;5.30;100.00
78198;BME280;67472;51.554;7.812;2023-02-11T06:06:22;102536.34;;;5.32;100.00
78198;BME280;67472;51.554;7.812;2023-02-11T06:09:06;102531.91;;;5.34;100.00
78198;BME280;67472;51.554;7.812;2023-02-11T06:11:51;102526.75;;;5.33;100.00
78198;BME280;67472;51.554;7.812;2023-02-11T06:14:35;102529.44;;;5.30;100.00
78198;BME280;67472;51.554;7.812;2023-02-11T06:17:19;102533.03;;;5.27;100.00
78198;BME280;67472;51.554;7.812;2023-02-11T06:20:06;102522.75;;;5.21;100.00
78198;BME280;67472;51.554;7.812;2023-02-11T06:22:51;102521.06;;;5.19;100.00
78198;BME280;67472;51.554;7.812;2023-02-11T06:25:35;102530.44;;;5.26;100.00
78198;BME280;67472;51.554;7.812;2023-02-11T06:28:20;102528.84;;;5.22;100.00
78198;BME280;67472;51.554;7.812;2023-02-11T06:31:06;102529.78;;;5.19;100.00
78198;BME280;67472;51.554;7.812;2023-02-11T06:33:51;102522.47;;;5.30;100.00
78198;BME280;67472;51.554;7.812;2023-02-11T06:36:38;102536.53;;;5.26;100.00
78198;BME280;67472;51.554;7.812;2023-02-11T06:39:23;102533.03;;;5.27;100.00
78198;BME280;67472;51.554;7.812;2023-02-11T06:42:08;102539.78;;;5.34;100.00
78198;BME280;67472;51.554;7.812;2023-02-11T06:44:52;102550.34;;;5.31;100.00
78198;BME280;67472;51.554;7.812;2023-02-11T06:47:40;102549.47;;;5.32;100.00
78198;BME280;67472;51.554;7.812;2023-02-11T06:50:25;102551.03;;;5.38;100.00
78198;BME280;67472;51.554;7.812;2023-02-11T06:53:10;102548.56;;;5.33;100.00
78198;BME280;67472;51.554;7.812;2023-02-11T06:55:54;102553.03;;;5.30;100.00
78198;BME280;67472;51.554;7.812;2023-02-11T06:58:39;102558.34;;;5.28;100.00
78198;BME280;67472;51.554;7.812;2023-02-11T07:01:24;102555.22;;;5.43;100.00
78198;BME280;67472;51.554;7.812;2023-02-11T07:04:09;102560.53;;;5.42;100.00
78198;BME280;67472;51.554;7.812;2023-02-11T07:06:53;102565.69;;;5.43;100.00
78198;BME280;67472;51.554;7.812;2023-02-11T07:09:38;102562.19;;;5.44;100.00
78198;BME280;67472;51.554;7.812;2023-02-11T07:12:22;102555.88;;;5.50;100.00
78198;BME280;67472;51.554;7.812;2023-02-11T07:15:09;102568.22;;;5.46;100.00
78198;BME280;67472;51.554;7.812;2023-02-11T07:17:54;102562.88;;;5.49;100.00
78198;BME280;67472;51.554;7.812;2023-02-11T07:20:38;102555.00;;;5.51;100.00
78198;BME280;67472;51.554;7.812;2023-02-11T07:23:23;102559.19;;;5.56;100.00
78198;BME280;67472;51.554;7.812;2023-02-11T07:26:09;102561.03;;;5.53;100.00
78198;BME280;67472;51.554;7.812;2023-02-11T07:28:54;102569.06;;;5.48;100.00
78198;BME280;67472;51.554;7.812;2023-02-11T07:31:39;102575.03;;;5.52;100.00
78198;BME280;67472;51.554;7.812;2023-02-11T07:34:23;102577.44;;;5.59;100.00
78198;BME280;67472;51.554;7.812;2023-02-11T07:37:08;102587.75;;;5.64;100.00
78198;BME280;67472;51.554;7.812;2023-02-11T07:39:53;102595.72;;;5.61;100.00
78198;BME280;67472;51.554;7.812;2023-02-11T07:42:38;102594.03;;;5.60;100.00
78198;BME280;67472;51.554;7.812;2023-02-11T07:45:24;102606.16;;;5.62;100.00
78198;BME280;67472;51.554;7.812;2023-02-11T07:48:09;102592.81;;;5.70;100.00
78198;BME280;67472;51.554;7.812;2023-02-11T07:50:53;102598.06;;;5.70;100.00
78198;BME280;67472;51.554;7.812;2023-02-11T07:53:38;102605.06;;;5.69;100.00
78198;BME280;67472;51.554;7.812;2023-02-11T07:56:23;102599.69;;;5.74;100.00
78198;BME280;67472;51.554;7.812;2023-02-11T07:59:09;102605.88;;;5.72;100.00
78198;BME280;67472;51.554;7.812;2023-02-11T08:01:53;102596.28;;;5.70;100.00
78198;BME280;67472;51.554;7.812;2023-02-11T08:04:38;102601.34;;;5.77;100.00
78198;BME280;67472;51.554;7.812;2023-02-11T08:07:22;102618.03;;;5.74;100.00
78198;BME280;67472;51.554;7.812;2023-02-11T08:10:07;102608.53;;;5.70;100.00
78198;BME280;67472;51.554;7.812;2023-02-11T08:12:52;102609.41;;;5.70;100.00
78198;BME280;67472;51.554;7.812;2023-02-11T08:15:37;102614.56;;;5.72;100.00
78198;BME280;67472;51.554;7.812;2023-02-11T08:18:22;102611.16;;;5.70;100.00
78198;BME280;67472;51.554;7.812;2023-02-11T08:21:08;102624.94;;;5.77;100.00
78198;BME280;67472;51.554;7.812;2023-02-11T08:23:53;102631.75;;;5.82;100.00
78198;BME280;67472;51.554;7.812;2023-02-11T08:26:37;102636.03;;;5.85;100.00
78198;BME280;67472;51.554;7.812;2023-02-11T08:29:22;102646.47;;;5.88;100.00
78198;BME280;67472;51.554;7.812;2023-02-11T08:32:06;102643.91;;;5.86;100.00
78198;BME280;67472;51.554;7.812;2023-02-11T08:34:51;102653.34;;;5.92;100.00
78198;BME280;67472;51.554;7.812;2023-02-11T08:37:35;102650.41;;;6.01;100.00
78198;BME280;67472;51.554;7.812;2023-02-11T08:40:20;102655.44;;;6.07;100.00
78198;BME280;67472;51.554;7.812;2023-02-11T08:43:04;102654.03;;;5.97;100.00
78198;BME280;67472;51.554;7.812;2023-02-11T08:45:49;102660.94;;;5.99;100.00
78198;BME280;67472;51.554;7.812;2023-02-11T08:48:35;102673.91;;;6.04;100.00
78198;BME280;67472;51.554;7.812;2023-02-11T08:51:25;102667.72;;;6.06;100.00
78198;BME280;67472;51.554;7.812;2023-02-11T08:54:11;102666.19;;;5.99;100.00
78198;BME280;67472;51.554;7.812;2023-02-11T08:56:58;102656.41;;;6.04;100.00
78198;BME280;67472;51.554;7.812;2023-02-11T08:59:43;102660.50;;;6.13;100.00
78198;BME280;67472;51.554;7.812;2023-02-11T09:02:27;102663.84;;;6.18;100.00
78198;BME280;67472;51.554;7.812;2023-02-11T09:05:13;102660.38;;;6.17;100.00
78198;BME280;67472;51.554;7.812;2023-02-11T09:07:57;102660.28;;;6.19;100.00
78198;BME280;67472;51.554;7.812;2023-02-11T09:10:42;102660.19;;;6.22;100.00
78198;BME280;67472;51.554;7.812;2023-02-11T09:13:27;102668.03;;;6.23;100.00
78198;BME280;67472;51.554;7.812;2023-02-11T09:16:17;102665.34;;;6.25;100.00
78198;BME280;67472;51.554;7.812;2023-02-11T09:19:03;102668.03;;;6.23;100.00
78198;BME280;67472;51.554;7.812;2023-02-11T09:21:49;102668.72;;;6.29;100.00
78198;BME280;67472;51.554;7.812;2023-02-11T09:24:33;102662.69;;;6.27;100.00
78198;BME280;67472;51.554;7.812;2023-02-11T09:27:17;102666.72;;;6.37;100.00
78198;BME280;67472;51.554;7.812;2023-02-11T09:30:03;102674.47;;;6.40;100.00
78198;BME280;67472;51.554;7.812;2023-02-11T09:32:48;102675.94;;;6.48;100.00
78198;BME280;67472;51.554;7.812;2023-02-11T09:35:33;102668.97;;;6.47;100.00
78198;BME280;67472;51.554;7.812;2023-02-11T09:38:17;102679.47;;;6.47;100.00
78198;BME280;67472;51.554;7.812;2023-02-11T09:41:03;102680.44;;;6.45;100.00
78198;BME280;67472;51.554;7.812;2023-02-11T09:43:56;102686.53;;;6.45;100.00
78198;BME280;67472;51.554;7.812;2023-02-11T09:46:42;102680.97;;;6.54;100.00
78198;BME280;67472;51.554;7.812;2023-02-11T09:49:48;102693.72;;;6.65;100.00
78198;BME280;67472;51.554;7.812;2023-02-11T09:55:45;102689.00;;;6.76;100.00
78198;BME280;67472;51.554;7.812;2023-02-11T09:58:34;102685.72;;;6.69;100.00
78198;BME280;67472;51.554;7.812;2023-02-11T10:01:38;102688.28;;;6.71;100.00
78198;BME280;67472;51.554;7.812;2023-02-11T10:07:46;102693.38;;;6.75;100.00
78198;BME280;67472;51.554;7.812;2023-02-11T10:25:58;102697.97;;;6.69;100.00
78198;BME280;67472;51.554;7.812;2023-02-11T10:28:48;102699.53;;;6.74;100.00
78198;BME280;67472;51.554;7.812;2023-02-11T10:31:41;102708.22;;;6.76;100.00
78198;BME280;67472;51.554;7.812;2023-02-11T10:34:28;102708.09;;;6.79;100.00
78198;BME280;67472;51.554;7.812;2023-02-11T10:37:12;102708.22;;;6.76;100.00
78198;BME280;67472;51.554;7.812;2023-02-11T10:39:57;102709.66;;;6.85;100.00
78198;BME280;67472;51.554;7.812;2023-02-11T10:42:46;102701.63;;;6.90;100.00
78198;BME280;67472;51.554;7.812;2023-02-11T10:45:38;102704.50;;;6.82;100.00
78198;BME280;67472;51.554;7.812;2023-02-11T10:51:32;102706.13;;;6.86;100.00
78198;BME280;67472;51.554;7.812;2023-02-11T10:54:17;102701.06;;;6.81;100.00
78198;BME280;67472;51.554;7.812;2023-02-11T10:57:17;102700.94;;;6.85;100.00
78198;BME280;67472;51.554;7.812;2023-02-11T11:00:22;102704.50;;;6.82;100.00
78198;BME280;67472;51.554;7.812;2023-02-11T11:03:25;102711.38;;;6.86;100.00
78198;BME280;67472;51.554;7.812;2023-02-11T11:06:10;102712.78;;;6.96;100.00
78198;BME280;67472;51.554;7.812;2023-02-11T11:08:54;102712.84;;;6.95;100.00
78198;BME280;67472;51.554;7.812;2023-02-11T11:11:50;102709.09;;;7.02;100.00
78198;BME280;67472;51.554;7.812;2023-02-11T11:14:35;102705.50;;;7.04;100.00
78198;BME280;67472;51.554;7.812;2023-02-11T11:17:19;102708.69;;;7.12;100.00
78198;BME280;67472;51.554;7.812;2023-02-11T11:20:27;102703.13;;;7.21;100.00
78198;BME280;67472;51.554;7.812;2023-02-11T11:23:19;102698.63;;;7.25;100.00
78198;BME280;67472;51.554;7.812;2023-02-11T11:26:10;102689.56;;;7.32;100.00
78198;BME280;67472;51.554;7.812;2023-02-11T11:29:08;102683.72;;;7.25;100.00
78198;BME280;67472;51.554;7.812;2023-02-11T11:32:00;102690.84;;;7.22;100.00
78198;BME280;67472;51.554;7.812;2023-02-11T11:35:03;102691.53;;;7.27;100.00
78198;BME280;67472;51.554;7.812;2023-02-11T11:37:59;102694.78;;;7.33;100.00
78198;BME280;67472;51.554;7.812;2023-02-11T11:41:12;102700.44;;;7.46;100.00
78198;BME280;67472;51.554;7.812;2023-02-11T11:46:43;102701.81;;;7.33;100.00
78198;BME280;67472;51.554;7.812;2023-02-11T11:49:33;102686.91;;;7.33;100.00
78198;BME280;67472;51.554;7.812;2023-02-11T11:55:44;102685.28;;;7.29;100.00
78198;BME280;67472;51.554;7.812;2023-02-11T11:58:32;102678.31;;;7.28;100.00
78198;BME280;67472;51.554;7.812;2023-02-11T12:08:09;102686.25;;;7.27;100.00
78198;BME280;67472;51.554;7.812;2023-02-11T12:11:15;102693.16;;;7.29;100.00
78198;BME280;67472;51.554;7.812;2023-02-11T12:27:01;102670.56;;;7.49;100.00
78198;BME280;67472;51.554;7.812;2023-02-11T12:41:59;102678.06;;;7.58;100.00
78198;BME280;67472;51.554;7.812;2023-02-11T12:51:26;102681.75;;;7.54;100.00
78198;BME280;67472;51.554;7.812;2023-02-11T12:54:31;102679.75;;;7.60;100.00
78198;BME280;67472;51.554;7.812;2023-02-11T12:57:22;102673.66;;;7.58;100.00
78198;BME280;67472;51.554;7.812;2023-02-11T13:00:22;102679.03;;;7.55;100.00
78198;BME280;67472;51.554;7.812;2023-02-11T13:03:39;102669.28;;;7.59;100.00
78198;BME280;67472;51.554;7.812;2023-02-11T13:06:30;102657.97;;;7.57;100.00
78198;BME280;67472;51.554;7.812;2023-02-11T13:09:27;102658.44;;;7.66;100.00
78198;BME280;67472;51.554;7.812;2023-02-11T13:12:13;102653.50;;;7.59;100.00
78198;BME280;67472;51.554;7.812;2023-02-11T13:15:17;102645.56;;;7.60;100.00
78198;BME280;67472;51.554;7.812;2023-02-11T13:18:26;102646.47;;;7.59;100.00
78198;BME280;67472;51.554;7.812;2023-02-11T13:24:47;102642.44;;;7.72;100.00
78198;BME280;67472;51.554;7.812;2023-02-11T13:27:46;102640.03;;;7.66;100.00
78198;BME280;67472;51.554;7.812;2023-02-11T13:30:34;102642.63;;;7.68;100.00
78198;BME280;67472;51.554;7.812;2023-02-11T13:33:49;102639.56;;;7.78;100.00
78198;BME280;67472;51.554;7.812;2023-02-11T13:36:34;102644.28;;;7.70;100.00
78198;BME280;67472;51.554;7.812;2023-02-11T13:39:19;102645.81;;;7.76;100.00
78198;BME280;67472;51.554;7.812;2023-02-11T13:42:04;102653.28;;;7.86;100.00
78198;BME280;67472;51.554;7.812;2023-02-11T13:44:49;102649.84;;;7.84;100.00
78198;BME280;67472;51.554;7.812;2023-02-11T13:47:35;102651.69;;;7.82;100.00
78198;BME280;67472;51.554;7.812;2023-02-11T13:50:22;102646.19;;;7.88;100.00
78198;BME280;67472;51.554;7.812;2023-02-11T13:53:08;102652.31;;;7.89;100.00
78198;BME280;67472;51.554;7.812;2023-02-11T13:56:08;102651.31;;;7.91;100.00
78198;BME280;67472;51.554;7.812;2023-02-11T13:58:57;102644.75;;;8.02;100.00
78198;BME280;67472;51.554;7.812;2023-02-11T14:08:24;102642.06;;;8.03;100.00
78198;BME280;67472;51.554;7.812;2023-02-11T14:14:26;102648.38;;;7.99;100.00
78198;BME280;67472;51.554;7.812;2023-02-11T14:17:16;102657.44;;;7.92;100.00
78198;BME280;67472;51.554;7.812;2023-02-11T14:20:04;102653.88;;;7.93;100.00
78198;BME280;67472;51.554;7.812;2023-02-11T14:23:21;102648.69;;;7.91;100.00
78198;BME280;67472;51.554;7.812;2023-02-11T14:32:42;102636.81;;;8.03;100.00
78198;BME280;67472;51.554;7.812;2023-02-11T14:35:42;102640.19;;;8.07;100.00
78198;BME280;67472;51.554;7.812;2023-02-11T14:41:55;102649.13;;;8.03;100.00
78198;BME280;67472;51.554;7.812;2023-02-11T14:44:40;102644.63;;;8.05;100.00
78198;BME280;67472;51.554;7.812;2023-02-11T14:47:52;102641.34;;;8.00;100.00
78198;BME280;67472;51.554;7.812;2023-02-11T14:50:48;102639.81;;;7.94;100.00
78198;BME280;67472;51.554;7.812;2023-02-11T14:53:33;102642.31;;;7.97;100.00
78198;BME280;67472;51.554;7.812;2023-02-11T14:56:24;102638.72;;;8.00;100.00
78198;BME280;67472;51.554;7.812;2023-02-11T14:59:20;102645.56;;;8.04;100.00
78198;BME280;67472;51.554;7.812;2023-02-11T15:02:20;102639.44;;;8.03;100.00
78198;BME280;67472;51.554;7.812;2023-02-11T15:08:02;102646.81;;;7.95;100.00
78198;BME280;67472;51.554;7.812;2023-02-11T15:10:47;102643.31;;;7.94;100.00
78198;BME280;67472;51.554;7.812;2023-02-11T15:13:32;102661.81;;;8.13;100.00
78198;BME280;67472;51.554;7.812;2023-02-11T15:16:21;102651.53;;;8.07;100.00
78198;BME280;67472;51.554;7.812;2023-02-11T15:22:33;102657.13;;;8.00;100.00
78198;BME280;67472;51.554;7.812;2023-02-11T15:25:20;102654.69;;;7.95;100.00
78198;BME280;67472;51.554;7.812;2023-02-11T15:28:18;102647.38;;;8.02;100.00
78198;BME280;67472;51.554;7.812;2023-02-11T15:31:13;102652.91;;;7.95;100.00
78198;BME280;67472;51.554;7.812;2023-02-11T15:34:05;102659.97;;;7.95;100.00
78198;BME280;67472;51.554;7.812;2023-02-11T15:36:50;102655.91;;;7.86;100.00
78198;BME280;67472;51.554;7.812;2023-02-11T15:39:38;102660.44;;;7.83;100.00
78198;BME280;67472;51.554;7.812;2023-02-11T15:42:28;102655.66;;;7.92;100.00
78198;BME280;67472;51.554;7.812;2023-02-11T15:48:17;102662.63;;;7.93;100.00
78198;BME280;67472;51.554;7.812;2023-02-11T15:51:27;102666.91;;;7.96;100.00
78198;BME280;67472;51.554;7.812;2023-02-11T15:54:21;102662.84;;;7.89;100.00
78198;BME280;67472;51.554;7.812;2023-02-11T15:57:07;102668.81;;;7.92;100.00
78198;BME280;67472;51.554;7.812;2023-02-11T15:59:54;102657.56;;;7.89;100.00
78198;BME280;67472;51.554;7.812;2023-02-11T16:02:39;102664.09;;;7.79;100.00
78198;BME280;67472;51.554;7.812;2023-02-11T16:05:36;102674.75;;;7.76;100.00
78198;BME280;67472;51.554;7.812;2023-02-11T16:08:27;102680.78;;;7.78;100.00
78198;BME280;67472;51.554;7.812;2023-02-11T16:11:25;102685.81;;;7.84;100.00
78198;BME280;67472;51.554;7.812;2023-02-11T16:20:02;102697.66;;;7.72;100.00
78198;BME280;67472;51.554;7.812;2023-02-11T16:22:46;102698.84;;;7.65;100.00
78198;BME280;67472;51.554;7.812;2023-02-11T16:25:33;102712.06;;;7.85;100.00
78198;BME280;67472;51.554;7.812;2023-02-11T16:28:18;102718.00;;;7.69;100.00
78198;BME280;67472;51.554;7.812;2023-02-11T16:31:04;102710.44;;;7.60;100.00
78198;BME280;67472;51.554;7.812;2023-02-11T16:33:49;102721.75;;;7.62;100.00
78198;BME280;67472;51.554;7.812;2023-02-11T16:36:33;102719.06;;;7.63;100.00
78198;BME280;67472;51.554;7.812;2023-02-11T16:39:19;102723.63;;;7.58;100.00
78198;BME280;67472;51.554;7.812;2023-02-11T16:42:10;102718.56;;;7.54;100.00
78198;BME280;67472;51.554;7.812;2023-02-11T16:44:55;102723.94;;;7.51;100.00
78198;BME280;67472;51.554;7.812;2023-02-11T16:47:41;102723.81;;;7.54;100.00
78198;BME280;67472;51.554;7.812;2023-02-11T16:50:26;102730.75;;;7.56;100.00
78198;BME280;67472;51.554;7.812;2023-02-11T16:53:16;102728.16;;;7.55;100.00
78198;BME280;67472;51.554;7.812;2023-02-11T16:56:01;102729.19;;;7.51;100.00